Dades meteomassalio
Diari Summary for Gener 14, 2018 Units:  English    Metric   Both
« Previous Day
Next Day »
Diari Semanal Mensual Anual Personalitzat
  Maxima: Minima: Mijana:
Temperatura: TemperatureC °F 1.7 °F 5.7 °F
Rosada: DewpointC °F -2.1 °F 2.6 °F
Humitat: Humidity % 71 % 80 %
Velocitat del vent: WindSpeedKMH mph 0.0 mph 13.5 mph
Racha vent: WindSpeedGustKMH mph - -
Vent:- - NW
Pressio: PressurehPa in 1018.5 in -
Pluja: 0.3 in    
Historical Graphs
 
 
Tabular Data for Gener 14, 2018
Time Temperature Dew Point Pressure Wind Wind Speed Wind Gust Humidity Rainfall Rate (Hourly) solar Conditions
TemperatureC °F DewpointC °F PressurehPa in Calm     Humidity % HourlyPrecipMM in SolarRadiationWatts/m^2 W/m2 Conditions
00:05 4.4 °F 3.1 °F 1019.5 in West 5.6 mph 5.6 mph 91 % 0.3 in 0.0 W/m2 RA
00:11 5.0 °F 3.7 °F 1019.5 in Calm     91 % 0.3 in 0.0 W/m2 CLR
00:24 4.4 °F 3.1 °F 1019.5 in Calm     91 % 0.3 in 0.0 W/m2 CLR
00:31 4.4 °F 3.1 °F 1019.5 in West 3.2 mph 3.2 mph 91 % 0.3 in 0.0 W/m2 CLR
01:10 3.3 °F 2.0 °F 1018.8 in Calm     91 % 0.0 in 0.0 W/m2 CLR
01:20 2.8 °F 1.4 °F 1018.8 in Calm     91 % 0.0 in 0.0 W/m2 CLR
01:28 2.8 °F 1.6 °F 1018.8 in Calm     92 % 0.0 in 0.0 W/m2 CLR
01:35 2.8 °F 1.6 °F 1018.8 in Calm     92 % 0.0 in 0.0 W/m2 CLR
01:53 2.8 °F 1.6 °F 1018.8 in Calm     92 % 0.0 in 0.0 W/m2 CLR
02:04 2.8 °F 1.6 °F 1018.5 in Calm     92 % 0.0 in 0.0 W/m2 CLR
02:22 3.3 °F 2.2 °F 1018.5 in Calm     92 % 0.0 in 0.0 W/m2 CLR
02:47 3.3 °F 2.2 °F 1018.5 in Calm     92 % 0.3 in 0.0 W/m2
03:03 3.3 °F 2.3 °F 1018.8 in NNW 8.0 mph 8.0 mph 93 % 0.3 in 0.0 W/m2 CLR
03:14 3.9 °F 2.7 °F 1019.2 in NW 18.5 mph 18.5 mph 92 % 0.3 in 0.0 W/m2 CLR
03:24 5.0 °F 3.3 °F 1018.8 in NNW 7.4 mph 7.4 mph 89 % 0.3 in 0.0 W/m2 CLR
03:30 5.0 °F 3.2 °F 1018.8 in NW 18.5 mph 18.5 mph 88 % 0.3 in 0.0 W/m2 CLR
03:51 5.6 °F 3.6 °F 1019.2 in NW 16.7 mph 16.7 mph 87 % 0.0 in 0.0 W/m2 CLR
03:58 5.6 °F 3.6 °F 1019.2 in NW 16.7 mph 16.7 mph 87 % 0.0 in 0.0 W/m2 CLR
04:10 5.6 °F 3.6 °F 1019.2 in NW 9.3 mph 9.3 mph 87 % 0.0 in 0.0 W/m2 CLR
04:18 5.6 °F 3.6 °F 1019.2 in NW 11.1 mph 11.1 mph 87 % 0.0 in 0.0 W/m2 CLR
04:59 5.0 °F 3.2 °F 1019.2 in NNW 13.0 mph 13.0 mph 88 % 0.0 in 0.0 W/m2 CLR
05:06 5.0 °F 3.2 °F 1019.2 in NW 14.5 mph 14.5 mph 88 % 0.0 in 0.0 W/m2 CLR
05:15 5.0 °F 3.2 °F 1019.2 in NW 18.5 mph 18.5 mph 88 % 0.0 in 0.0 W/m2 CLR
05:20 5.0 °F 3.2 °F 1019.2 in NW 16.7 mph 16.7 mph 88 % 0.0 in 0.0 W/m2 CLR
05:26 5.0 °F 3.2 °F 1019.2 in NNW 18.5 mph 18.5 mph 88 % 0.0 in 0.0 W/m2 CLR
05:59 5.0 °F 3.3 °F 1019.2 in NW 16.7 mph 16.7 mph 89 % 0.0 in 0.0 W/m2 CLR
06:08 5.0 °F 3.3 °F 1019.2 in NW 13.0 mph 13.0 mph 89 % 0.0 in 0.0 W/m2 CLR
06:13 5.0 °F 3.3 °F 1019.2 in NW 9.7 mph 9.7 mph 89 % 0.0 in 0.0 W/m2 CLR
06:24 4.4 °F 2.9 °F 1019.2 in NW 13.0 mph 13.0 mph 90 % 0.0 in 0.0 W/m2 CLR
06:32 4.4 °F 2.8 °F 1019.2 in NW 12.9 mph 12.9 mph 89 % 0.0 in 0.0 W/m2 CLR
06:39 4.4 °F 2.9 °F 1019.2 in NW 14.8 mph 14.8 mph 90 % 0.0 in 0.0 W/m2 CLR
06:47 4.4 °F 2.9 °F 1018.8 in NW 5.6 mph 5.6 mph 90 % 0.0 in 0.0 W/m2 CLR
06:55 5.0 °F 3.3 °F 1018.8 in NW 14.8 mph 14.8 mph 89 % 0.0 in 0.0 W/m2 CLR
07:05 5.0 °F 3.2 °F 1018.8 in NW 18.5 mph 18.5 mph 88 % 0.0 in 0.0 W/m2 CLR
07:15 5.0 °F 3.0 °F 1018.8 in NNW 14.8 mph 14.8 mph 87 % 0.0 in 0.0 W/m2 CLR
07:23 5.0 °F 3.0 °F 1018.8 in NW 14.8 mph 14.8 mph 87 % 0.0 in 0.0 W/m2 CLR
07:31 5.0 °F 3.0 °F 1018.8 in NW 13.0 mph 13.0 mph 87 % 0.0 in 0.0 W/m2 CLR
07:39 5.0 °F 3.0 °F 1018.8 in NW 11.1 mph 11.1 mph 87 % 0.0 in 0.0 W/m2 CLR
07:55 5.0 °F 3.0 °F 1019.2 in NW 13.0 mph 13.0 mph 87 % 0.0 in 0.0 W/m2 CLR
08:41 5.6 °F 3.1 °F 1019.2 in NW 16.7 mph 16.7 mph 84 % 0.0 in 9.0 W/m2 BKN
08:47 5.6 °F 3.1 °F 1019.2 in NW 18.5 mph 18.5 mph 84 % 0.0 in 9.0 W/m2 BKN
08:55 5.6 °F 3.1 °F 1019.2 in NW 16.1 mph 16.1 mph 84 % 0.0 in 16.0 W/m2 BKN
09:03 5.6 °F 3.1 °F 1019.5 in NW 14.5 mph 14.5 mph 84 % 0.0 in 16.0 W/m2 BKN
09:08 5.6 °F 3.1 °F 1019.5 in WNW 13.0 mph 13.0 mph 84 % 0.0 in 28.0 W/m2 BKN
09:14 5.6 °F 2.9 °F 1019.5 in NW 18.5 mph 18.5 mph 83 % 0.0 in 37.0 W/m2 BKN
09:39 5.6 °F 2.7 °F 1019.9 in NW 13.0 mph 13.0 mph 82 % 0.0 in 42.0 W/m2 SCT
09:45 5.6 °F 2.7 °F 1019.9 in NW 16.7 mph 16.7 mph 82 % 0.0 in 32.0 W/m2 BKN
10:23 6.1 °F 3.1 °F 1020.5 in NNW 16.7 mph 16.7 mph 81 % 0.0 in 97.0 W/m2 CLR
10:28 6.7 °F 3.6 °F 1020.5 in NW 16.7 mph 16.7 mph 81 % 0.0 in 91.0 W/m2 CLR
10:37 6.7 °F 3.4 °F 1020.5 in NW 14.8 mph 14.8 mph 80 % 0.0 in 95.0 W/m2 CLR
10:44 6.7 °F 3.6 °F 1020.9 in Calm     81 % 0.0 in 102.0 W/m2 CLR
11:04 7.2 °F 3.7 °F 1020.9 in NNW 3.2 mph 3.2 mph 78 % 0.0 in 156.0 W/m2 CLR
11:20 7.8 °F 3.6 °F 1020.9 in WNW 18.5 mph 18.5 mph 75 % 0.0 in 158.0 W/m2 CLR
11:25 7.8 °F 3.4 °F 1020.9 in WNW 29.6 mph 29.6 mph 74 % 0.0 in 128.0 W/m2 CLR
11:32 7.8 °F 3.4 °F 1021.2 in WNW 18.5 mph 18.5 mph 74 % 0.0 in 230.0 W/m2 CLR
11:48 8.3 °F 3.9 °F 1021.2 in NNW 20.4 mph 20.4 mph 74 % 0.0 in 155.0 W/m2 CLR
12:01 8.9 °F 4.3 °F 1020.9 in NNW 22.2 mph 22.2 mph 73 % 0.0 in 192.0 W/m2 CLR
12:28 9.4 °F 4.4 °F 1020.9 in NNW 29.6 mph 29.6 mph 71 % 0.0 in 188.0 W/m2 CLR
12:40 9.4 °F 4.4 °F 1020.5 in NW 25.9 mph 25.9 mph 71 % 0.0 in 257.0 W/m2 CLR
12:47 9.4 °F 4.4 °F 1020.9 in NNW 27.4 mph 27.4 mph 71 % 0.0 in 167.0 W/m2 CLR
13:04 9.4 °F 4.7 °F 1020.5 in NW 22.2 mph 22.2 mph 72 % 0.0 in 200.0 W/m2 CLR
13:16 8.9 °F 4.3 °F 1020.5 in NNW 31.5 mph 31.5 mph 73 % 0.0 in 193.0 W/m2 CLR
13:31 9.4 °F 5.2 °F 1020.2 in North 29.6 mph 29.6 mph 75 % 0.0 in 353.0 W/m2 CLR
13:41 10.0 °F 5.6 °F 1020.2 in North 25.9 mph 25.9 mph 74 % 0.0 in 241.0 W/m2 CLR
13:54 8.9 °F 5.1 °F 1020.2 in NNW 27.8 mph 27.8 mph 77 % 0.0 in 179.0 W/m2 CLR
14:04 8.9 °F 4.9 °F 1020.2 in NNW 22.2 mph 22.2 mph 76 % 0.0 in 134.0 W/m2 CLR
15:00 9.4 °F 5.1 °F 1020.2 in NNW 29.6 mph 29.6 mph 74 % 0.0 in 274.0 W/m2 CLR
15:07 9.4 °F 4.8 °F 1020.5 in NNW 29.6 mph 29.6 mph 73 % 0.0 in 264.0 W/m2 CLR
15:29 9.4 °F 4.8 °F 1020.5 in North 24.1 mph 24.1 mph 73 % 0.0 in 163.0 W/m2 CLR
15:37 8.9 °F 4.3 °F 1020.5 in NNW 31.5 mph 31.5 mph 73 % 0.0 in 142.0 W/m2 CLR
15:46 8.9 °F 4.5 °F 1020.9 in North 31.5 mph 31.5 mph 74 % 0.0 in 123.0 W/m2 CLR
15:53 8.3 °F 4.2 °F 1020.9 in NNW 18.5 mph 18.5 mph 75 % 0.0 in 84.0 W/m2 CLR
15:58 8.3 °F 4.2 °F 1020.9 in North 19.3 mph 19.3 mph 75 % 0.0 in 77.0 W/m2 CLR
16:08 8.3 °F 4.3 °F 1020.9 in NNW 22.2 mph 22.2 mph 76 % 0.0 in 69.0 W/m2 FEW
16:14 8.3 °F 4.6 °F 1020.5 in North 18.5 mph 18.5 mph 77 % 0.0 in 109.0 W/m2 FEW
16:32 8.3 °F 4.3 °F 1020.9 in NNW 27.8 mph 27.8 mph 76 % 0.0 in 70.0 W/m2 CLR
16:40 8.3 °F 4.3 °F 1020.9 in NNW 19.3 mph 19.3 mph 76 % 0.0 in 77.0 W/m2 FEW
16:56 8.3 °F 4.3 °F 1020.9 in NNW 16.7 mph 16.7 mph 76 % 0.0 in 63.0 W/m2 SCT
17:14 8.3 °F 4.3 °F 1021.2 in NNW 16.1 mph 16.1 mph 76 % 0.0 in 56.0 W/m2 SCT
17:25 7.8 °F 3.8 °F 1021.2 in North 16.7 mph 16.7 mph 76 % 0.0 in 37.0 W/m2 BKN
17:45 7.8 °F 4.0 °F 1021.2 in NW 16.7 mph 16.7 mph 77 % 0.0 in 14.0 W/m2 BKN
18:03 7.2 °F 3.3 °F 1021.6 in NW 14.8 mph 14.8 mph 76 % 0.0 in 0.0 W/m2 CLR
18:08 7.2 °F 3.3 °F 1021.6 in NNW 16.7 mph 16.7 mph 76 % 0.0 in 0.0 W/m2 CLR
18:31 6.7 °F 2.7 °F 1021.9 in Calm     76 % 0.0 in 0.0 W/m2 CLR
18:39 6.7 °F 2.7 °F 1021.9 in Calm     76 % 0.0 in 0.0 W/m2 CLR
18:44 6.7 °F 2.7 °F 1021.9 in NNW 3.7 mph 3.7 mph 76 % 0.0 in 0.0 W/m2 CLR
18:51 6.7 °F 2.7 °F 1022.2 in NW 9.7 mph 9.7 mph 76 % 0.0 in 0.0 W/m2 CLR
19:32 7.2 °F 3.1 °F 1022.6 in NW 13.0 mph 13.0 mph 75 % 0.0 in 0.0 W/m2 CLR
19:49 7.2 °F 3.1 °F 1022.9 in WNW 13.0 mph 13.0 mph 75 % 0.0 in 0.0 W/m2 CLR
19:56 7.2 °F 3.1 °F 1022.9 in NW 13.0 mph 13.0 mph 75 % 0.0 in 0.0 W/m2 CLR
20:04 7.2 °F 3.1 °F 1022.9 in NW 14.8 mph 14.8 mph 75 % 0.0 in 0.0 W/m2 CLR
20:11 6.7 °F 2.7 °F 1023.2 in West 11.1 mph 11.1 mph 76 % 0.0 in 0.0 W/m2 CLR
20:16 6.7 °F 2.7 °F 1023.2 in WNW 9.7 mph 9.7 mph 76 % 0.0 in 0.0 W/m2 CLR
20:22 6.7 °F 2.7 °F 1023.2 in WNW 9.3 mph 9.3 mph 76 % 0.0 in 0.0 W/m2 CLR
20:38 6.1 °F 2.2 °F 1023.2 in WNW 12.9 mph 12.9 mph 76 % 0.0 in 0.0 W/m2 CLR
20:50 5.6 °F 1.8 °F 1023.6 in WNW 13.0 mph 13.0 mph 77 % 0.0 in 0.0 W/m2 CLR
20:56 5.6 °F 1.8 °F 1023.6 in WNW 13.0 mph 13.0 mph 77 % 0.0 in 0.0 W/m2 CLR
21:05 5.0 °F 0.9 °F 1023.6 in WNW 13.0 mph 13.0 mph 75 % 0.0 in 0.0 W/m2 CLR
21:17 4.4 °F 0.4 °F 1023.6 in NW 16.7 mph 16.7 mph 75 % 0.0 in 0.0 W/m2 CLR
21:36 3.3 °F -0.9 °F 1023.9 in NW 14.8 mph 14.8 mph 74 % 0.0 in 0.0 W/m2 CLR
21:42 3.3 °F -0.9 °F 1023.9 in WNW 14.8 mph 14.8 mph 74 % 0.0 in 0.0 W/m2 CLR
22:02 2.8 °F -1.2 °F 1024.3 in Calm     75 % 0.0 in 0.0 W/m2 CLR
22:07 2.2 °F -1.8 °F 1024.3 in Calm     75 % 0.0 in 0.0 W/m2 CLR
22:17 2.2 °F -1.6 °F 1023.9 in Calm     76 % 0.0 in 0.0 W/m2 CLR
22:28 1.7 °F -2.1 °F 1024.3 in WNW 3.7 mph 3.7 mph 76 % 0.0 in 0.0 W/m2 CLR
22:45 1.7 °F -1.9 °F 1024.3 in NW 12.9 mph 12.9 mph 77 % 0.0 in 0.0 W/m2 CLR
22:51 1.7 °F -1.9 °F 1024.6 in WNW 11.1 mph 11.1 mph 77 % 0.0 in 0.0 W/m2 CLR
23:04 1.7 °F -1.9 °F 1024.6 in NW 3.2 mph 3.2 mph 77 % 0.0 in 0.0 W/m2 CLR
23:10 1.7 °F -1.8 °F 1024.6 in WNW 14.8 mph 14.8 mph 78 % 0.0 in 0.0 W/m2 CLR
23:16 2.2 °F -1.2 °F 1024.6 in WNW 7.4 mph 7.4 mph 78 % 0.0 in 0.0 W/m2 CLR
23:23 2.2 °F -1.2 °F 1024.9 in WNW 5.6 mph 5.6 mph 78 % 0.0 in 0.0 W/m2 CLR
23:29 2.2 °F -1.1 °F 1024.9 in West 9.3 mph 9.3 mph 79 % 0.0 in 0.0 W/m2 CLR
23:38 2.2 °F -0.7 °F 1024.9 in West 11.1 mph 11.1 mph 81 % 0.0 in 0.0 W/m2 CLR
23:53 2.2 °F -0.7 °F 1025.3 in WNW 8.0 mph 8.0 mph 81 % 0.0 in 0.0 W/m2 CLR
23:59 1.7 °F -1.2 °F 1025.3 in West 5.6 mph 5.6 mph 81 % 0.0 in 0.0 W/m2 CLR
Lo Temps de Massalio
Compliments of Weather Underground - 768 kb